Airfield :
LOGIN :

Register | Disclaimer

   EN    FR    IT 

 










Legend :    VFR   Marginal VFR   IFR   Intensive IFR   Very Intensive IFR
Visi :
Ceiling :
>= 8 km
>= 3000ft
5 to 8 km
1000 to 3000 ft
1500m to 5 km
500 to 1000 ft
800 to 1500m
200 to 500 ft
< 800m
< 200 ft
Symbols :   Thunderstorms  Fog  Heavy snow  Heavy precipitations  Wind > 20 kt
SIGMETs :     Misc.  Thunderstorms  Icing  Turbulence  Mountain Waves  Volcanic Ashes






- Airport Elevation : 194 ft


EBCV - Chièvres

CURRENT METAR :
  • 080255Z AUTO 21012KT 9999 BKN240/// 05/03 Q0993 BLU

EXPIRED METARs :
  • 080225Z AUTO 21015KT 9999 BKN240/// 05/03 Q0993 BLU
  • 080217Z AUTO 22015KT 9999 FEW035/// BKN240/// 05/03 Q0993 BLU
  • 080155Z AUTO 22015KT 9999 BKN021/// BKN230/// 06/03 Q0993 WHT
  • 080125Z AUTO 22014KT 9999 BKN021/// 06/04 Q0993 WHT
  • 080112Z AUTO 21013KT 9999 BKN023/// 06/04 Q0993 WHT
  • 080055Z AUTO 23016KT 9999 BKN028/// BKN210/// 06/04 Q0993 BLU
  • 080025Z AUTO 21016KT 9999 FEW013/// BKN130/// 06/04 Q0992 BLU

TAF TAF EBCV
Valid from the 07 at 19:00 until the 08 at 07:00 UTC


071541Z 0719/0807 16012G22KT 7000 -RA BKN015 BKN050
TEMPO 0717/0724 18018G30KT 4000 RA RADZ BKN012 BKN020
BECMG 0723/0801 20010KT 9999 FEW025 BY EBWM



MET'MAP, your aeronautical weather chart ! - Copyright ORBIFLY December 2007 - Disclaimer

ORBIFLY MET'MAP TEAM :

Programming & Development : Alexandra Zaïnal
Concept & original design : Baudouin d'Aumeries
Assistance for programming : Marc-Olivier Méhu
Technical & hardware support : Manuel Goepfert

Contact : metmap@orbifly.com




SOURCES & CREDITS :

   NOAA